sensor_id;sensor_type;location;lat;lon;timestamp;P1;durP1;ratioP1;P2;durP2;ratioP2
32292;SDS011;43233;48.608;8.838;2022-11-20T00:00:50;4.40;;;4.03;;
32292;SDS011;43233;48.608;8.838;2022-11-20T00:03:15;5.80;;;4.07;;
32292;SDS011;43233;48.608;8.838;2022-11-20T00:05:42;5.83;;;4.40;;
32292;SDS011;43233;48.608;8.838;2022-11-20T00:08:08;5.00;;;4.50;;
32292;SDS011;43233;48.608;8.838;2022-11-20T00:10:36;4.57;;;4.13;;
32292;SDS011;43233;48.608;8.838;2022-11-20T00:13:02;3.93;;;3.63;;
32292;SDS011;43233;48.608;8.838;2022-11-20T00:15:28;6.10;;;4.47;;
32292;SDS011;43233;48.608;8.838;2022-11-20T00:17:54;4.13;;;3.83;;
32292;SDS011;43233;48.608;8.838;2022-11-20T00:20:19;5.57;;;4.77;;
32292;SDS011;43233;48.608;8.838;2022-11-20T00:22:45;4.03;;;3.63;;
32292;SDS011;43233;48.608;8.838;2022-11-20T00:25:12;3.93;;;3.63;;
32292;SDS011;43233;48.608;8.838;2022-11-20T00:27:37;4.60;;;4.20;;
32292;SDS011;43233;48.608;8.838;2022-11-20T00:30:04;10.63;;;3.67;;
32292;SDS011;43233;48.608;8.838;2022-11-20T00:32:30;4.37;;;3.97;;
32292;SDS011;43233;48.608;8.838;2022-11-20T00:34:56;4.40;;;4.07;;
32292;SDS011;43233;48.608;8.838;2022-11-20T00:37:21;4.17;;;3.77;;
32292;SDS011;43233;48.608;8.838;2022-11-20T00:39:47;4.00;;;3.70;;
32292;SDS011;43233;48.608;8.838;2022-11-20T00:42:12;4.43;;;4.03;;
32292;SDS011;43233;48.608;8.838;2022-11-20T00:44:38;4.63;;;4.23;;
32292;SDS011;43233;48.608;8.838;2022-11-20T00:47:04;4.07;;;3.70;;
32292;SDS011;43233;48.608;8.838;2022-11-20T00:49:29;3.67;;;3.40;;
32292;SDS011;43233;48.608;8.838;2022-11-20T00:51:55;4.20;;;3.60;;
32292;SDS011;43233;48.608;8.838;2022-11-20T00:54:21;4.57;;;4.20;;
32292;SDS011;43233;48.608;8.838;2022-11-20T00:56:46;5.50;;;3.63;;
32292;SDS011;43233;48.608;8.838;2022-11-20T00:59:12;4.57;;;3.17;;
32292;SDS011;43233;48.608;8.838;2022-11-20T01:01:37;4.30;;;3.90;;
32292;SDS011;43233;48.608;8.838;2022-11-20T01:04:03;5.73;;;3.67;;
32292;SDS011;43233;48.608;8.838;2022-11-20T01:06:31;3.80;;;3.50;;
32292;SDS011;43233;48.608;8.838;2022-11-20T01:09:06;4.33;;;3.63;;
32292;SDS011;43233;48.608;8.838;2022-11-20T01:11:38;4.17;;;3.77;;
32292;SDS011;43233;48.608;8.838;2022-11-20T01:14:07;4.00;;;3.60;;
32292;SDS011;43233;48.608;8.838;2022-11-20T01:16:37;4.83;;;3.40;;
32292;SDS011;43233;48.608;8.838;2022-11-20T01:19:06;3.30;;;3.10;;
32292;SDS011;43233;48.608;8.838;2022-11-20T01:21:37;3.30;;;3.10;;
32292;SDS011;43233;48.608;8.838;2022-11-20T01:24:05;4.47;;;4.17;;
32292;SDS011;43233;48.608;8.838;2022-11-20T01:26:33;5.80;;;3.93;;
32292;SDS011;43233;48.608;8.838;2022-11-20T01:29:00;4.10;;;3.70;;
32292;SDS011;43233;48.608;8.838;2022-11-20T01:31:34;3.80;;;3.50;;
32292;SDS011;43233;48.608;8.838;2022-11-20T01:34:02;4.47;;;4.10;;
32292;SDS011;43233;48.608;8.838;2022-11-20T01:36:30;4.23;;;3.83;;
32292;SDS011;43233;48.608;8.838;2022-11-20T01:38:58;6.30;;;4.23;;
32292;SDS011;43233;48.608;8.838;2022-11-20T01:41:26;4.70;;;3.80;;
32292;SDS011;43233;48.608;8.838;2022-11-20T01:44:14;3.67;;;3.37;;
32292;SDS011;43233;48.608;8.838;2022-11-20T01:46:56;5.60;;;4.20;;
32292;SDS011;43233;48.608;8.838;2022-11-20T01:49:28;4.80;;;4.40;;
32292;SDS011;43233;48.608;8.838;2022-11-20T01:52:24;3.90;;;3.60;;
32292;SDS011;43233;48.608;8.838;2022-11-20T01:55:09;4.67;;;4.20;;
32292;SDS011;43233;48.608;8.838;2022-11-20T01:57:39;3.97;;;3.67;;
32292;SDS011;43233;48.608;8.838;2022-11-20T02:00:07;6.63;;;4.83;;
32292;SDS011;43233;48.608;8.838;2022-11-20T02:02:35;5.73;;;4.40;;
32292;SDS011;43233;48.608;8.838;2022-11-20T02:05:04;5.20;;;3.90;;
32292;SDS011;43233;48.608;8.838;2022-11-20T02:07:42;4.60;;;4.20;;
32292;SDS011;43233;48.608;8.838;2022-11-20T02:10:08;5.00;;;4.50;;
32292;SDS011;43233;48.608;8.838;2022-11-20T02:12:34;4.70;;;4.20;;
32292;SDS011;43233;48.608;8.838;2022-11-20T02:15:18;4.87;;;4.40;;
32292;SDS011;43233;48.608;8.838;2022-11-20T02:17:44;4.73;;;4.37;;
32292;SDS011;43233;48.608;8.838;2022-11-20T02:20:10;4.33;;;4.03;;
32292;SDS011;43233;48.608;8.838;2022-11-20T02:22:38;7.50;;;4.87;;
32292;SDS011;43233;48.608;8.838;2022-11-20T02:25:19;6.13;;;4.70;;
32292;SDS011;43233;48.608;8.838;2022-11-20T02:27:46;5.00;;;4.60;;
32292;SDS011;43233;48.608;8.838;2022-11-20T02:30:12;4.40;;;4.10;;
32292;SDS011;43233;48.608;8.838;2022-11-20T02:32:38;4.70;;;4.30;;
32292;SDS011;43233;48.608;8.838;2022-11-20T02:37:48;5.50;;;3.80;;
32292;SDS011;43233;48.608;8.838;2022-11-20T02:40:17;5.07;;;4.57;;
32292;SDS011;43233;48.608;8.838;2022-11-20T02:42:43;6.23;;;5.47;;
32292;SDS011;43233;48.608;8.838;2022-11-20T02:45:09;5.80;;;4.90;;
32292;SDS011;43233;48.608;8.838;2022-11-20T02:47:35;4.57;;;4.17;;
32292;SDS011;43233;48.608;8.838;2022-11-20T02:50:00;4.63;;;4.23;;
32292;SDS011;43233;48.608;8.838;2022-11-20T02:52:26;5.67;;;4.80;;
32292;SDS011;43233;48.608;8.838;2022-11-20T02:54:52;8.67;;;5.00;;
32292;SDS011;43233;48.608;8.838;2022-11-20T02:57:17;7.80;;;5.00;;
32292;SDS011;43233;48.608;8.838;2022-11-20T02:59:43;10.10;;;5.40;;
32292;SDS011;43233;48.608;8.838;2022-11-20T03:02:09;7.60;;;5.77;;
32292;SDS011;43233;48.608;8.838;2022-11-20T03:04:34;11.13;;;6.97;;
32292;SDS011;43233;48.608;8.838;2022-11-20T03:07:00;8.73;;;5.40;;
32292;SDS011;43233;48.608;8.838;2022-11-20T03:09:26;5.20;;;4.70;;
32292;SDS011;43233;48.608;8.838;2022-11-20T03:11:51;5.30;;;4.90;;
32292;SDS011;43233;48.608;8.838;2022-11-20T03:14:17;4.87;;;4.40;;
32292;SDS011;43233;48.608;8.838;2022-11-20T03:16:43;5.13;;;4.60;;
32292;SDS011;43233;48.608;8.838;2022-11-20T03:19:08;6.00;;;4.40;;
32292;SDS011;43233;48.608;8.838;2022-11-20T03:21:36;4.77;;;4.37;;
32292;SDS011;43233;48.608;8.838;2022-11-20T03:24:02;5.27;;;4.77;;
32292;SDS011;43233;48.608;8.838;2022-11-20T03:26:28;4.03;;;3.73;;
32292;SDS011;43233;48.608;8.838;2022-11-20T03:28:55;5.33;;;4.30;;
32292;SDS011;43233;48.608;8.838;2022-11-20T03:31:23;4.43;;;3.93;;
32292;SDS011;43233;48.608;8.838;2022-11-20T03:33:50;5.27;;;4.77;;
32292;SDS011;43233;48.608;8.838;2022-11-20T03:36:17;5.00;;;4.20;;
32292;SDS011;43233;48.608;8.838;2022-11-20T03:38:44;6.23;;;4.20;;
32292;SDS011;43233;48.608;8.838;2022-11-20T03:41:11;5.23;;;4.10;;
32292;SDS011;43233;48.608;8.838;2022-11-20T03:43:39;5.07;;;4.50;;
32292;SDS011;43233;48.608;8.838;2022-11-20T03:46:05;4.63;;;4.10;;
32292;SDS011;43233;48.608;8.838;2022-11-20T03:48:31;6.10;;;5.13;;
32292;SDS011;43233;48.608;8.838;2022-11-20T03:51:13;6.63;;;5.90;;
32292;SDS011;43233;48.608;8.838;2022-11-20T03:53:43;11.23;;;5.00;;
32292;SDS011;43233;48.608;8.838;2022-11-20T03:56:10;7.33;;;5.67;;
32292;SDS011;43233;48.608;8.838;2022-11-20T03:58:38;5.60;;;5.10;;
32292;SDS011;43233;48.608;8.838;2022-11-20T04:01:08;6.40;;;4.20;;
32292;SDS011;43233;48.608;8.838;2022-11-20T04:03:39;4.73;;;4.33;;
32292;SDS011;43233;48.608;8.838;2022-11-20T04:06:07;6.17;;;5.37;;
32292;SDS011;43233;48.608;8.838;2022-11-20T04:08:37;7.20;;;4.93;;
32292;SDS011;43233;48.608;8.838;2022-11-20T04:13:35;8.60;;;4.73;;
32292;SDS011;43233;48.608;8.838;2022-11-20T04:16:00;5.33;;;4.83;;
32292;SDS011;43233;48.608;8.838;2022-11-20T04:18:26;5.83;;;4.43;;
32292;SDS011;43233;48.608;8.838;2022-11-20T04:20:52;5.20;;;4.70;;
32292;SDS011;43233;48.608;8.838;2022-11-20T04:23:17;5.70;;;4.50;;
32292;SDS011;43233;48.608;8.838;2022-11-20T04:25:43;4.67;;;4.27;;
32292;SDS011;43233;48.608;8.838;2022-11-20T04:28:08;6.10;;;4.77;;
32292;SDS011;43233;48.608;8.838;2022-11-20T04:30:34;5.43;;;4.77;;
32292;SDS011;43233;48.608;8.838;2022-11-20T04:33:00;7.30;;;4.80;;
32292;SDS011;43233;48.608;8.838;2022-11-20T04:35:25;7.00;;;4.47;;
32292;SDS011;43233;48.608;8.838;2022-11-20T04:37:51;7.00;;;4.33;;
32292;SDS011;43233;48.608;8.838;2022-11-20T04:40:17;5.20;;;4.70;;
32292;SDS011;43233;48.608;8.838;2022-11-20T04:42:42;5.10;;;4.60;;
32292;SDS011;43233;48.608;8.838;2022-11-20T04:45:08;6.57;;;5.03;;
32292;SDS011;43233;48.608;8.838;2022-11-20T04:47:34;5.20;;;4.50;;
32292;SDS011;43233;48.608;8.838;2022-11-20T04:49:59;6.50;;;5.00;;
32292;SDS011;43233;48.608;8.838;2022-11-20T04:52:25;5.33;;;4.70;;
32292;SDS011;43233;48.608;8.838;2022-11-20T04:54:51;4.90;;;4.47;;
32292;SDS011;43233;48.608;8.838;2022-11-20T04:57:18;8.37;;;5.73;;
32292;SDS011;43233;48.608;8.838;2022-11-20T04:59:44;7.07;;;5.10;;
32292;SDS011;43233;48.608;8.838;2022-11-20T05:02:10;5.77;;;4.80;;
32292;SDS011;43233;48.608;8.838;2022-11-20T05:04:36;5.83;;;4.97;;
32292;SDS011;43233;48.608;8.838;2022-11-20T05:07:01;6.13;;;5.53;;
32292;SDS011;43233;48.608;8.838;2022-11-20T05:09:27;9.77;;;4.90;;
32292;SDS011;43233;48.608;8.838;2022-11-20T05:11:53;4.67;;;4.07;;
32292;SDS011;43233;48.608;8.838;2022-11-20T05:14:18;6.13;;;5.53;;
32292;SDS011;43233;48.608;8.838;2022-11-20T05:16:44;5.80;;;5.23;;
32292;SDS011;43233;48.608;8.838;2022-11-20T05:19:10;5.00;;;4.60;;
32292;SDS011;43233;48.608;8.838;2022-11-20T05:21:35;7.50;;;4.93;;
32292;SDS011;43233;48.608;8.838;2022-11-20T05:24:01;8.87;;;5.20;;
32292;SDS011;43233;48.608;8.838;2022-11-20T05:26:26;7.60;;;5.03;;
32292;SDS011;43233;48.608;8.838;2022-11-20T05:28:52;5.33;;;4.93;;
32292;SDS011;43233;48.608;8.838;2022-11-20T05:31:18;5.13;;;4.73;;
32292;SDS011;43233;48.608;8.838;2022-11-20T05:33:46;6.90;;;4.70;;
32292;SDS011;43233;48.608;8.838;2022-11-20T05:36:12;4.90;;;4.43;;
32292;SDS011;43233;48.608;8.838;2022-11-20T05:38:39;5.97;;;5.37;;
32292;SDS011;43233;48.608;8.838;2022-11-20T05:41:06;5.43;;;4.70;;
32292;SDS011;43233;48.608;8.838;2022-11-20T05:43:37;4.37;;;4.07;;
32292;SDS011;43233;48.608;8.838;2022-11-20T05:46:04;4.27;;;3.87;;
32292;SDS011;43233;48.608;8.838;2022-11-20T05:48:31;3.13;;;3.00;;
32292;SDS011;43233;48.608;8.838;2022-11-20T05:50:58;3.90;;;3.30;;
32292;SDS011;43233;48.608;8.838;2022-11-20T05:53:24;3.17;;;2.97;;
32292;SDS011;43233;48.608;8.838;2022-11-20T05:56:00;3.50;;;3.20;;
32292;SDS011;43233;48.608;8.838;2022-11-20T05:58:26;3.40;;;3.20;;
32292;SDS011;43233;48.608;8.838;2022-11-20T06:00:52;3.33;;;3.03;;
32292;SDS011;43233;48.608;8.838;2022-11-20T06:03:18;5.03;;;3.00;;
32292;SDS011;43233;48.608;8.838;2022-11-20T06:05:44;3.40;;;3.20;;
32292;SDS011;43233;48.608;8.838;2022-11-20T06:08:09;5.77;;;3.60;;
32292;SDS011;43233;48.608;8.838;2022-11-20T06:10:35;3.90;;;3.10;;
32292;SDS011;43233;48.608;8.838;2022-11-20T06:13:00;3.70;;;3.40;;
32292;SDS011;43233;48.608;8.838;2022-11-20T06:15:26;3.77;;;3.47;;
32292;SDS011;43233;48.608;8.838;2022-11-20T06:17:52;2.90;;;2.70;;
32292;SDS011;43233;48.608;8.838;2022-11-20T06:20:18;3.60;;;3.13;;
32292;SDS011;43233;48.608;8.838;2022-11-20T06:22:45;3.60;;;3.30;;
32292;SDS011;43233;48.608;8.838;2022-11-20T06:25:10;3.70;;;3.40;;
32292;SDS011;43233;48.608;8.838;2022-11-20T06:27:36;3.87;;;3.57;;
32292;SDS011;43233;48.608;8.838;2022-11-20T06:30:03;3.77;;;3.27;;
32292;SDS011;43233;48.608;8.838;2022-11-20T06:32:29;9.03;;;3.60;;
32292;SDS011;43233;48.608;8.838;2022-11-20T06:34:55;3.33;;;3.13;;
32292;SDS011;43233;48.608;8.838;2022-11-20T06:37:20;3.50;;;3.20;;
32292;SDS011;43233;48.608;8.838;2022-11-20T06:39:46;7.23;;;3.60;;
32292;SDS011;43233;48.608;8.838;2022-11-20T06:42:11;6.73;;;3.70;;
32292;SDS011;43233;48.608;8.838;2022-11-20T06:44:37;4.20;;;3.80;;
32292;SDS011;43233;48.608;8.838;2022-11-20T06:47:03;3.73;;;3.43;;
32292;SDS011;43233;48.608;8.838;2022-11-20T06:49:28;4.70;;;4.30;;
32292;SDS011;43233;48.608;8.838;2022-11-20T06:51:54;3.70;;;3.50;;
32292;SDS011;43233;48.608;8.838;2022-11-20T06:54:19;3.90;;;3.60;;
32292;SDS011;43233;48.608;8.838;2022-11-20T06:56:48;3.23;;;2.93;;
32292;SDS011;43233;48.608;8.838;2022-11-20T06:59:14;4.07;;;3.73;;
32292;SDS011;43233;48.608;8.838;2022-11-20T07:01:39;4.00;;;3.60;;
32292;SDS011;43233;48.608;8.838;2022-11-20T07:04:05;3.60;;;3.30;;
32292;SDS011;43233;48.608;8.838;2022-11-20T07:06:31;3.43;;;3.13;;
32292;SDS011;43233;48.608;8.838;2022-11-20T07:08:56;4.40;;;3.63;;
32292;SDS011;43233;48.608;8.838;2022-11-20T07:11:23;6.67;;;3.10;;
32292;SDS011;43233;48.608;8.838;2022-11-20T07:13:49;3.63;;;3.43;;
32292;SDS011;43233;48.608;8.838;2022-11-20T07:16:14;3.73;;;3.43;;
32292;SDS011;43233;48.608;8.838;2022-11-20T07:18:40;2.83;;;2.57;;
32292;SDS011;43233;48.608;8.838;2022-11-20T07:21:07;2.93;;;2.73;;
32292;SDS011;43233;48.608;8.838;2022-11-20T07:23:35;4.63;;;3.17;;
32292;SDS011;43233;48.608;8.838;2022-11-20T07:26:04;3.10;;;2.90;;
32292;SDS011;43233;48.608;8.838;2022-11-20T07:28:31;2.97;;;2.77;;
32292;SDS011;43233;48.608;8.838;2022-11-20T07:30:56;3.43;;;2.67;;
32292;SDS011;43233;48.608;8.838;2022-11-20T07:33:22;3.30;;;3.00;;
32292;SDS011;43233;48.608;8.838;2022-11-20T07:35:48;3.53;;;3.27;;
32292;SDS011;43233;48.608;8.838;2022-11-20T07:38:13;2.43;;;2.33;;
32292;SDS011;43233;48.608;8.838;2022-11-20T07:40:39;3.03;;;2.50;;
32292;SDS011;43233;48.608;8.838;2022-11-20T07:43:04;2.87;;;2.67;;
32292;SDS011;43233;48.608;8.838;2022-11-20T07:45:30;2.67;;;2.57;;
32292;SDS011;43233;48.608;8.838;2022-11-20T07:47:55;2.73;;;2.60;;
32292;SDS011;43233;48.608;8.838;2022-11-20T07:50:21;2.83;;;2.63;;
32292;SDS011;43233;48.608;8.838;2022-11-20T07:52:46;4.07;;;3.67;;
32292;SDS011;43233;48.608;8.838;2022-11-20T07:55:12;4.60;;;2.63;;
32292;SDS011;43233;48.608;8.838;2022-11-20T07:57:38;2.40;;;2.20;;
32292;SDS011;43233;48.608;8.838;2022-11-20T08:00:04;2.80;;;2.57;;
32292;SDS011;43233;48.608;8.838;2022-11-20T08:02:33;2.63;;;2.43;;
32292;SDS011;43233;48.608;8.838;2022-11-20T08:05:01;2.70;;;2.27;;
32292;SDS011;43233;48.608;8.838;2022-11-20T08:07:27;2.70;;;2.60;;
32292;SDS011;43233;48.608;8.838;2022-11-20T08:09:52;2.60;;;2.50;;
32292;SDS011;43233;48.608;8.838;2022-11-20T08:12:19;3.30;;;2.53;;
32292;SDS011;43233;48.608;8.838;2022-11-20T08:15:04;3.07;;;2.50;;
32292;SDS011;43233;48.608;8.838;2022-11-20T08:17:31;3.10;;;2.83;;
32292;SDS011;43233;48.608;8.838;2022-11-20T08:19:57;2.47;;;2.37;;
32292;SDS011;43233;48.608;8.838;2022-11-20T08:22:22;2.80;;;2.60;;
32292;SDS011;43233;48.608;8.838;2022-11-20T08:24:48;2.73;;;2.50;;
32292;SDS011;43233;48.608;8.838;2022-11-20T08:27:14;2.57;;;2.40;;
32292;SDS011;43233;48.608;8.838;2022-11-20T08:29:39;2.50;;;2.40;;
32292;SDS011;43233;48.608;8.838;2022-11-20T08:32:05;2.50;;;2.30;;
32292;SDS011;43233;48.608;8.838;2022-11-20T08:34:30;3.80;;;2.37;;
32292;SDS011;43233;48.608;8.838;2022-11-20T08:36:57;2.40;;;2.30;;
32292;SDS011;43233;48.608;8.838;2022-11-20T08:39:23;1.90;;;1.80;;
32292;SDS011;43233;48.608;8.838;2022-11-20T08:41:49;2.07;;;1.97;;
32292;SDS011;43233;48.608;8.838;2022-11-20T08:44:14;2.30;;;2.20;;
32292;SDS011;43233;48.608;8.838;2022-11-20T08:46:40;2.07;;;1.97;;
32292;SDS011;43233;48.608;8.838;2022-11-20T08:49:09;2.20;;;2.10;;
32292;SDS011;43233;48.608;8.838;2022-11-20T08:51:36;6.00;;;1.90;;
32292;SDS011;43233;48.608;8.838;2022-11-20T08:54:03;2.27;;;2.17;;
32292;SDS011;43233;48.608;8.838;2022-11-20T08:56:29;1.83;;;1.73;;
32292;SDS011;43233;48.608;8.838;2022-11-20T08:58:55;3.60;;;2.07;;
32292;SDS011;43233;48.608;8.838;2022-11-20T09:01:21;1.90;;;1.80;;
32292;SDS011;43233;48.608;8.838;2022-11-20T09:03:51;2.03;;;1.93;;
32292;SDS011;43233;48.608;8.838;2022-11-20T09:06:16;2.00;;;1.90;;
32292;SDS011;43233;48.608;8.838;2022-11-20T09:08:42;1.90;;;1.80;;
32292;SDS011;43233;48.608;8.838;2022-11-20T09:11:08;1.80;;;1.70;;
32292;SDS011;43233;48.608;8.838;2022-11-20T09:13:35;2.10;;;2.00;;
32292;SDS011;43233;48.608;8.838;2022-11-20T09:16:02;2.20;;;2.10;;
32292;SDS011;43233;48.608;8.838;2022-11-20T09:18:30;2.10;;;2.00;;
32292;SDS011;43233;48.608;8.838;2022-11-20T09:20:58;1.70;;;1.60;;
32292;SDS011;43233;48.608;8.838;2022-11-20T09:23:24;2.10;;;1.80;;
32292;SDS011;43233;48.608;8.838;2022-11-20T09:25:51;3.00;;;1.80;;
32292;SDS011;43233;48.608;8.838;2022-11-20T09:28:17;2.00;;;1.90;;
32292;SDS011;43233;48.608;8.838;2022-11-20T09:30:43;2.00;;;1.90;;
32292;SDS011;43233;48.608;8.838;2022-11-20T09:33:09;5.27;;;3.00;;
32292;SDS011;43233;48.608;8.838;2022-11-20T09:35:35;2.10;;;2.00;;
32292;SDS011;43233;48.608;8.838;2022-11-20T09:38:04;1.90;;;1.80;;
32292;SDS011;43233;48.608;8.838;2022-11-20T09:40:31;2.10;;;2.00;;
32292;SDS011;43233;48.608;8.838;2022-11-20T09:42:58;1.70;;;1.60;;
32292;SDS011;43233;48.608;8.838;2022-11-20T09:45:37;1.60;;;1.60;;
32292;SDS011;43233;48.608;8.838;2022-11-20T09:51:16;1.60;;;1.60;;
32292;SDS011;43233;48.608;8.838;2022-11-20T09:54:29;1.80;;;1.70;;
32292;SDS011;43233;48.608;8.838;2022-11-20T09:57:13;3.20;;;3.00;;
32292;SDS011;43233;48.608;8.838;2022-11-20T09:59:45;3.40;;;3.20;;
32292;SDS011;43233;48.608;8.838;2022-11-20T10:05:24;2.87;;;2.70;;
32292;SDS011;43233;48.608;8.838;2022-11-20T10:15:40;2.10;;;2.00;;
32292;SDS011;43233;48.608;8.838;2022-11-20T10:20:48;1.80;;;1.70;;
32292;SDS011;43233;48.608;8.838;2022-11-20T10:26:43;3.10;;;2.90;;
32292;SDS011;43233;48.608;8.838;2022-11-20T10:29:34;2.10;;;2.00;;
32292;SDS011;43233;48.608;8.838;2022-11-20T10:32:04;3.07;;;2.87;;
32292;SDS011;43233;48.608;8.838;2022-11-20T10:37:22;2.20;;;2.10;;
32292;SDS011;43233;48.608;8.838;2022-11-20T10:48:10;2.07;;;1.97;;
32292;SDS011;43233;48.608;8.838;2022-11-20T10:50:46;2.07;;;1.97;;
32292;SDS011;43233;48.608;8.838;2022-11-20T10:56:20;5.80;;;1.90;;
32292;SDS011;43233;48.608;8.838;2022-11-20T11:01:49;2.23;;;2.00;;
32292;SDS011;43233;48.608;8.838;2022-11-20T11:04:36;2.43;;;2.23;;
32292;SDS011;43233;48.608;8.838;2022-11-20T11:07:06;2.53;;;1.80;;
32292;SDS011;43233;48.608;8.838;2022-11-20T11:09:43;2.50;;;2.30;;
32292;SDS011;43233;48.608;8.838;2022-11-20T11:12:14;2.73;;;2.57;;
32292;SDS011;43233;48.608;8.838;2022-11-20T11:14:49;2.20;;;2.10;;
32292;SDS011;43233;48.608;8.838;2022-11-20T11:17:20;5.33;;;2.23;;
32292;SDS011;43233;48.608;8.838;2022-11-20T11:22:53;7.33;;;1.80;;
32292;SDS011;43233;48.608;8.838;2022-11-20T11:27:53;2.33;;;2.10;;
32292;SDS011;43233;48.608;8.838;2022-11-20T11:30:21;2.10;;;2.00;;
32292;SDS011;43233;48.608;8.838;2022-11-20T11:32:47;2.40;;;2.10;;
32292;SDS011;43233;48.608;8.838;2022-11-20T11:35:24;2.03;;;1.93;;
32292;SDS011;43233;48.608;8.838;2022-11-20T11:37:53;2.30;;;2.17;;
32292;SDS011;43233;48.608;8.838;2022-11-20T11:40:27;2.00;;;1.90;;
32292;SDS011;43233;48.608;8.838;2022-11-20T11:42:59;3.20;;;1.60;;
32292;SDS011;43233;48.608;8.838;2022-11-20T11:45:30;1.77;;;1.67;;
32292;SDS011;43233;48.608;8.838;2022-11-20T11:48:00;1.83;;;1.73;;
32292;SDS011;43233;48.608;8.838;2022-11-20T11:50:28;1.70;;;1.60;;
32292;SDS011;43233;48.608;8.838;2022-11-20T11:53:13;1.70;;;1.60;;
32292;SDS011;43233;48.608;8.838;2022-11-20T11:55:43;2.10;;;2.00;;
32292;SDS011;43233;48.608;8.838;2022-11-20T12:01:34;3.13;;;1.80;;
32292;SDS011;43233;48.608;8.838;2022-11-20T12:10:02;4.63;;;1.80;;
32292;SDS011;43233;48.608;8.838;2022-11-20T12:12:36;2.20;;;1.80;;
32292;SDS011;43233;48.608;8.838;2022-11-20T12:15:11;3.43;;;1.87;;
32292;SDS011;43233;48.608;8.838;2022-11-20T12:17:45;2.93;;;1.53;;
32292;SDS011;43233;48.608;8.838;2022-11-20T12:20:12;9.20;;;1.53;;
32292;SDS011;43233;48.608;8.838;2022-11-20T12:25:31;3.47;;;1.43;;
32292;SDS011;43233;48.608;8.838;2022-11-20T12:28:03;1.43;;;1.30;;
32292;SDS011;43233;48.608;8.838;2022-11-20T12:39:49;2.97;;;1.43;;
32292;SDS011;43233;48.608;8.838;2022-11-20T12:42:23;2.87;;;1.73;;
32292;SDS011;43233;48.608;8.838;2022-11-20T12:58:30;1.20;;;1.10;;
32292;SDS011;43233;48.608;8.838;2022-11-20T13:01:17;4.93;;;1.40;;
32292;SDS011;43233;48.608;8.838;2022-11-20T13:07:08;1.50;;;1.40;;
32292;SDS011;43233;48.608;8.838;2022-11-20T13:09:40;2.57;;;1.40;;
32292;SDS011;43233;48.608;8.838;2022-11-20T13:14:52;2.07;;;1.40;;
32292;SDS011;43233;48.608;8.838;2022-11-20T13:17:38;4.83;;;1.33;;
32292;SDS011;43233;48.608;8.838;2022-11-20T13:20:26;16.43;;;1.70;;
32292;SDS011;43233;48.608;8.838;2022-11-20T13:22:54;2.07;;;1.50;;
32292;SDS011;43233;48.608;8.838;2022-11-20T13:25:26;4.60;;;2.30;;
32292;SDS011;43233;48.608;8.838;2022-11-20T13:27:52;1.60;;;1.50;;
32292;SDS011;43233;48.608;8.838;2022-11-20T13:30:20;1.77;;;1.67;;
32292;SDS011;43233;48.608;8.838;2022-11-20T13:32:50;2.07;;;1.90;;
32292;SDS011;43233;48.608;8.838;2022-11-20T13:40:27;3.20;;;2.07;;
32292;SDS011;43233;48.608;8.838;2022-11-20T13:45:24;3.17;;;2.20;;
32292;SDS011;43233;48.608;8.838;2022-11-20T13:47:52;1.90;;;1.80;;
32292;SDS011;43233;48.608;8.838;2022-11-20T13:50:21;5.97;;;2.20;;
32292;SDS011;43233;48.608;8.838;2022-11-20T14:01:17;10.97;;;3.37;;
32292;SDS011;43233;48.608;8.838;2022-11-20T14:03:46;2.67;;;2.47;;
32292;SDS011;43233;48.608;8.838;2022-11-20T14:06:22;3.97;;;2.37;;
32292;SDS011;43233;48.608;8.838;2022-11-20T14:08:52;2.20;;;2.10;;
32292;SDS011;43233;48.608;8.838;2022-11-20T14:11:22;2.63;;;2.30;;
32292;SDS011;43233;48.608;8.838;2022-11-20T14:13:55;2.33;;;2.10;;
32292;SDS011;43233;48.608;8.838;2022-11-20T14:16:30;2.27;;;2.17;;
32292;SDS011;43233;48.608;8.838;2022-11-20T14:18:57;2.47;;;2.37;;
32292;SDS011;43233;48.608;8.838;2022-11-20T14:21:42;2.70;;;2.50;;
32292;SDS011;43233;48.608;8.838;2022-11-20T14:24:10;2.20;;;1.90;;
32292;SDS011;43233;48.608;8.838;2022-11-20T14:26:43;2.23;;;2.13;;
32292;SDS011;43233;48.608;8.838;2022-11-20T14:29:14;13.90;;;8.20;;
32292;SDS011;43233;48.608;8.838;2022-11-20T14:31:50;15.17;;;7.87;;
32292;SDS011;43233;48.608;8.838;2022-11-20T14:34:22;12.90;;;7.23;;
32292;SDS011;43233;48.608;8.838;2022-11-20T14:36:51;6.07;;;4.17;;
32292;SDS011;43233;48.608;8.838;2022-11-20T14:39:20;4.50;;;3.67;;
32292;SDS011;43233;48.608;8.838;2022-11-20T14:41:53;2.73;;;2.53;;
32292;SDS011;43233;48.608;8.838;2022-11-20T14:44:40;3.40;;;2.63;;
32292;SDS011;43233;48.608;8.838;2022-11-20T14:47:05;2.47;;;2.20;;
32292;SDS011;43233;48.608;8.838;2022-11-20T14:49:31;3.90;;;2.30;;
32292;SDS011;43233;48.608;8.838;2022-11-20T14:52:17;3.40;;;1.90;;
32292;SDS011;43233;48.608;8.838;2022-11-20T14:54:45;2.90;;;2.70;;
32292;SDS011;43233;48.608;8.838;2022-11-20T14:57:34;9.47;;;5.77;;
32292;SDS011;43233;48.608;8.838;2022-11-20T15:02:45;2.37;;;2.27;;
32292;SDS011;43233;48.608;8.838;2022-11-20T15:05:12;2.67;;;2.40;;
32292;SDS011;43233;48.608;8.838;2022-11-20T15:07:40;3.73;;;1.97;;
32292;SDS011;43233;48.608;8.838;2022-11-20T15:10:19;5.30;;;2.90;;
32292;SDS011;43233;48.608;8.838;2022-11-20T15:12:52;2.60;;;2.40;;
32292;SDS011;43233;48.608;8.838;2022-11-20T15:17:50;2.83;;;2.73;;
32292;SDS011;43233;48.608;8.838;2022-11-20T15:20:15;3.20;;;2.90;;
32292;SDS011;43233;48.608;8.838;2022-11-20T15:22:42;3.67;;;3.37;;
32292;SDS011;43233;48.608;8.838;2022-11-20T15:25:11;3.77;;;2.97;;
32292;SDS011;43233;48.608;8.838;2022-11-20T15:27:42;3.03;;;2.77;;
32292;SDS011;43233;48.608;8.838;2022-11-20T15:30:12;4.30;;;3.20;;
32292;SDS011;43233;48.608;8.838;2022-11-20T15:32:39;4.27;;;3.67;;
32292;SDS011;43233;48.608;8.838;2022-11-20T15:35:05;5.90;;;4.70;;
32292;SDS011;43233;48.608;8.838;2022-11-20T15:37:31;9.30;;;5.73;;
32292;SDS011;43233;48.608;8.838;2022-11-20T15:39:57;9.67;;;5.70;;
32292;SDS011;43233;48.608;8.838;2022-11-20T15:42:22;12.90;;;7.57;;
32292;SDS011;43233;48.608;8.838;2022-11-20T15:44:48;19.10;;;10.27;;
32292;SDS011;43233;48.608;8.838;2022-11-20T15:47:13;22.00;;;11.93;;
32292;SDS011;43233;48.608;8.838;2022-11-20T15:49:39;16.63;;;10.13;;
32292;SDS011;43233;48.608;8.838;2022-11-20T15:52:05;7.67;;;6.50;;
32292;SDS011;43233;48.608;8.838;2022-11-20T15:54:33;8.40;;;5.93;;
32292;SDS011;43233;48.608;8.838;2022-11-20T15:56:58;4.80;;;4.40;;
32292;SDS011;43233;48.608;8.838;2022-11-20T15:59:25;4.10;;;3.70;;
32292;SDS011;43233;48.608;8.838;2022-11-20T16:01:51;3.40;;;3.20;;
32292;SDS011;43233;48.608;8.838;2022-11-20T16:04:16;3.33;;;2.60;;
32292;SDS011;43233;48.608;8.838;2022-11-20T16:06:43;5.60;;;4.20;;
32292;SDS011;43233;48.608;8.838;2022-11-20T16:09:09;8.00;;;4.60;;
32292;SDS011;43233;48.608;8.838;2022-11-20T16:11:34;4.10;;;3.80;;
32292;SDS011;43233;48.608;8.838;2022-11-20T16:14:04;6.93;;;5.40;;
32292;SDS011;43233;48.608;8.838;2022-11-20T16:16:48;7.23;;;5.10;;
32292;SDS011;43233;48.608;8.838;2022-11-20T16:19:14;15.03;;;8.20;;
32292;SDS011;43233;48.608;8.838;2022-11-20T16:21:40;3.13;;;2.83;;
32292;SDS011;43233;48.608;8.838;2022-11-20T16:24:07;2.77;;;2.50;;
32292;SDS011;43233;48.608;8.838;2022-11-20T16:26:35;3.70;;;3.40;;
32292;SDS011;43233;48.608;8.838;2022-11-20T16:29:02;6.20;;;4.50;;
32292;SDS011;43233;48.608;8.838;2022-11-20T16:31:28;3.40;;;3.10;;
32292;SDS011;43233;48.608;8.838;2022-11-20T16:33:58;3.63;;;3.43;;
32292;SDS011;43233;48.608;8.838;2022-11-20T16:36:26;3.77;;;3.47;;
32292;SDS011;43233;48.608;8.838;2022-11-20T16:38:54;29.23;;;13.23;;
32292;SDS011;43233;48.608;8.838;2022-11-20T16:41:21;6.90;;;4.80;;
32292;SDS011;43233;48.608;8.838;2022-11-20T16:43:51;5.30;;;3.83;;
32292;SDS011;43233;48.608;8.838;2022-11-20T16:46:19;3.63;;;3.30;;